createdAt,value
2022-12-03T00:00:16.087Z,14.50
2022-12-03T00:02:42.687Z,23.90
2022-12-03T00:05:09.915Z,18.48
2022-12-03T00:07:37.929Z,13.57
2022-12-03T00:10:05.037Z,14.20
2022-12-03T00:12:31.729Z,16.85
2022-12-03T00:14:58.467Z,14.60
2022-12-03T00:17:25.197Z,18.52
2022-12-03T00:19:51.709Z,15.65
2022-12-03T00:22:18.266Z,14.63
2022-12-03T00:24:44.863Z,18.75
2022-12-03T00:27:13.106Z,23.42
2022-12-03T00:29:39.647Z,21.05
2022-12-03T00:32:19.252Z,21.15
2022-12-03T00:34:47.744Z,21.02
2022-12-03T00:37:16.603Z,22.83
2022-12-03T00:39:46.074Z,14.07
2022-12-03T00:42:12.719Z,16.98
2022-12-03T00:44:39.272Z,15.35
2022-12-03T00:47:05.936Z,17.05
2022-12-03T00:49:33.785Z,14.68
2022-12-03T00:52:00.458Z,18.00
2022-12-03T00:54:31.663Z,18.67
2022-12-03T00:56:58.725Z,14.73
2022-12-03T00:59:25.304Z,17.50
2022-12-03T01:01:52.099Z,17.55
2022-12-03T01:04:22.651Z,14.73
2022-12-03T01:06:50.994Z,17.42
2022-12-03T01:09:17.699Z,15.93
2022-12-03T01:11:44.209Z,18.10
2022-12-03T01:14:21.084Z,15.23
2022-12-03T01:16:47.822Z,17.98
2022-12-03T01:19:18.117Z,16.25
2022-12-03T01:21:45.489Z,18.75
2022-12-03T01:24:12.453Z,17.30
2022-12-03T01:26:39.171Z,19.77
2022-12-03T01:29:06.194Z,15.05
2022-12-03T01:31:56.016Z,15.90
2022-12-03T01:34:22.648Z,16.98
2022-12-03T01:36:49.219Z,15.30
2022-12-03T01:39:15.848Z,14.38
2022-12-03T01:41:43.311Z,15.05
2022-12-03T01:44:25.070Z,17.70
2022-12-03T01:46:53.635Z,16.70
2022-12-03T01:49:22.829Z,16.58
2022-12-03T01:51:58.813Z,18.08
2022-12-03T01:54:35.950Z,15.18
2022-12-03T01:57:03.566Z,17.02
2022-12-03T01:59:34.713Z,14.50
2022-12-03T02:02:15.048Z,20.77
2022-12-03T02:04:41.669Z,17.70
2022-12-03T02:07:45.440Z,17.88
2022-12-03T02:10:13.883Z,17.73
2022-12-03T02:13:00.771Z,21.17
2022-12-03T02:15:27.466Z,20.30
2022-12-03T02:17:54.097Z,19.95
2022-12-03T02:20:20.820Z,18.77
2022-12-03T02:23:00.789Z,20.90
2022-12-03T02:25:35.102Z,20.90
2022-12-03T02:28:02.130Z,17.65
2022-12-03T02:30:29.577Z,17.20
2022-12-03T02:32:56.232Z,18.05
2022-12-03T02:35:24.637Z,19.20
2022-12-03T02:37:52.637Z,20.77
2022-12-03T02:40:24.667Z,18.27
2022-12-03T02:45:26.729Z,19.48
2022-12-03T02:47:56.117Z,24.65
2022-12-03T02:50:26.540Z,23.92
2022-12-03T02:52:54.541Z,24.67
2022-12-03T02:55:21.360Z,27.63
2022-12-03T02:57:50.276Z,26.00
2022-12-03T03:00:17.273Z,29.85
2022-12-03T03:02:45.028Z,21.27
2022-12-03T03:05:12.294Z,21.80
2022-12-03T03:07:39.732Z,25.92
2022-12-03T03:10:07.367Z,24.00
2022-12-03T03:12:39.055Z,26.55
2022-12-03T03:17:35.645Z,22.92
2022-12-03T03:20:02.627Z,23.67
2022-12-03T03:22:36.080Z,21.45
2022-12-03T03:25:06.507Z,26.85
2022-12-03T03:27:33.370Z,22.85
2022-12-03T03:30:00.157Z,20.98
2022-12-03T03:32:30.038Z,20.83
2022-12-03T03:34:57.187Z,21.77
2022-12-03T03:37:23.949Z,19.58
2022-12-03T03:39:50.608Z,18.27
2022-12-03T03:42:17.298Z,17.77
2022-12-03T03:44:44.080Z,18.13
2022-12-03T03:47:10.681Z,18.15
2022-12-03T03:49:37.878Z,20.85
2022-12-03T03:52:04.695Z,19.10
2022-12-03T03:54:31.906Z,17.95
2022-12-03T03:57:01.072Z,19.95
2022-12-03T03:59:28.612Z,21.08
2022-12-03T04:01:55.197Z,21.13
2022-12-03T04:04:23.835Z,16.13
2022-12-03T04:06:50.761Z,20.15
2022-12-03T04:09:22.155Z,21.60
2022-12-03T04:12:13.552Z,20.38
2022-12-03T04:14:44.549Z,16.65
2022-12-03T04:17:12.995Z,18.73
2022-12-03T04:19:42.677Z,20.20
2022-12-03T04:22:27.752Z,20.67
2022-12-03T04:25:22.925Z,20.65
2022-12-03T04:28:11.049Z,21.23
2022-12-03T04:30:38.939Z,18.48
2022-12-03T04:33:23.980Z,21.67
2022-12-03T04:35:50.612Z,17.05
2022-12-03T04:38:17.160Z,16.92
2022-12-03T04:41:01.787Z,22.13
2022-12-03T04:43:28.601Z,20.38
2022-12-03T04:45:58.176Z,19.50
2022-12-03T04:48:24.756Z,23.88
2022-12-03T04:50:54.418Z,23.27
2022-12-03T04:53:22.239Z,20.45
2022-12-03T04:55:48.860Z,20.70
2022-12-03T04:58:15.324Z,21.83
2022-12-03T05:00:44.880Z,24.13
2022-12-03T05:03:11.399Z,22.02
2022-12-03T05:05:37.924Z,20.60
2022-12-03T05:08:04.494Z,23.17
2022-12-03T05:10:31.157Z,20.63
2022-12-03T05:12:57.654Z,22.83
2022-12-03T05:15:24.227Z,21.67
2022-12-03T05:17:53.603Z,23.27
2022-12-03T05:20:38.604Z,21.65
2022-12-03T05:23:07.600Z,23.42
2022-12-03T05:25:45.449Z,22.67
2022-12-03T05:28:11.956Z,25.83
2022-12-03T05:30:41.345Z,23.23
2022-12-03T05:33:08.063Z,19.83
2022-12-03T05:35:34.523Z,25.08
2022-12-03T05:38:01.079Z,23.42
2022-12-03T05:40:27.597Z,23.48
2022-12-03T05:42:57.290Z,22.38
2022-12-03T05:45:24.930Z,23.05
2022-12-03T05:47:52.156Z,22.75
2022-12-03T05:50:19.394Z,21.98
2022-12-03T05:52:46.010Z,24.90
2022-12-03T05:55:12.593Z,24.02
2022-12-03T05:57:39.342Z,23.20
2022-12-03T06:00:08.650Z,22.30
2022-12-03T06:02:35.211Z,24.23
2022-12-03T06:05:04.529Z,25.63
2022-12-03T06:07:34.221Z,25.55
2022-12-03T06:10:00.760Z,19.73
2022-12-03T06:12:33.868Z,22.80
2022-12-03T06:15:00.502Z,24.88
2022-12-03T06:17:36.253Z,23.75
2022-12-03T06:20:03.031Z,26.40
2022-12-03T06:22:35.232Z,24.30
2022-12-03T06:25:06.362Z,23.92
2022-12-03T06:27:33.447Z,23.00
2022-12-03T06:30:00.778Z,21.60
2022-12-03T06:32:27.415Z,24.27
2022-12-03T06:34:54.285Z,23.42
2022-12-03T06:37:23.665Z,20.65
2022-12-03T06:39:50.701Z,21.80
2022-12-03T06:42:17.310Z,21.95
2022-12-03T06:44:43.857Z,22.17
2022-12-03T06:47:13.414Z,21.17
2022-12-03T06:49:41.991Z,21.60
2022-12-03T06:52:08.594Z,25.67
2022-12-03T06:54:36.535Z,25.33
2022-12-03T06:57:05.451Z,22.88
2022-12-03T06:59:43.431Z,21.65
2022-12-03T07:02:16.279Z,26.30
2022-12-03T07:04:46.275Z,25.90
2022-12-03T07:07:13.363Z,27.42
2022-12-03T07:09:39.880Z,26.23
2022-12-03T07:12:06.522Z,27.02
2022-12-03T07:14:36.086Z,25.08
2022-12-03T07:17:02.632Z,28.30
2022-12-03T07:19:32.510Z,31.33
2022-12-03T07:21:59.758Z,30.45
2022-12-03T07:24:26.337Z,28.48
2022-12-03T07:26:55.409Z,29.67
2022-12-03T07:29:21.968Z,28.23
2022-12-03T07:31:48.609Z,30.65
2022-12-03T07:34:15.399Z,22.77
2022-12-03T07:36:44.950Z,23.90
2022-12-03T07:39:11.508Z,23.35
2022-12-03T07:41:42.010Z,24.42
2022-12-03T07:44:14.036Z,20.95
2022-12-03T07:46:44.240Z,21.75
2022-12-03T07:49:12.290Z,20.98
2022-12-03T07:51:38.973Z,24.48
2022-12-03T07:54:05.669Z,21.20
2022-12-03T07:56:32.560Z,22.45
2022-12-03T07:59:02.190Z,23.88
2022-12-03T08:01:33.227Z,21.38
2022-12-03T08:04:15.042Z,19.20
2022-12-03T08:06:41.704Z,22.60
2022-12-03T08:09:11.969Z,19.25
2022-12-03T08:11:44.330Z,20.58
2022-12-03T08:14:18.421Z,20.70
2022-12-03T08:16:47.403Z,23.20
2022-12-03T08:19:15.344Z,20.40
2022-12-03T08:21:42.104Z,23.27
2022-12-03T08:24:17.451Z,25.00
2022-12-03T08:26:44.675Z,22.20
2022-12-03T08:29:14.894Z,22.85
2022-12-03T08:31:41.957Z,22.50
2022-12-03T08:34:18.358Z,22.92
2022-12-03T08:36:47.311Z,26.92
2022-12-03T08:39:28.895Z,24.30
2022-12-03T08:42:21.031Z,23.65
2022-12-03T08:44:47.723Z,23.98
2022-12-03T08:47:20.420Z,22.77
2022-12-03T08:50:07.214Z,23.15
2022-12-03T08:52:35.397Z,23.30
2022-12-03T08:55:35.891Z,20.95
2022-12-03T08:58:22.093Z,23.50
2022-12-03T09:00:57.064Z,25.00
2022-12-03T09:03:24.704Z,22.67
2022-12-03T09:05:51.559Z,24.20
2022-12-03T09:08:18.268Z,21.73
2022-12-03T09:10:47.088Z,26.45
2022-12-03T09:13:13.584Z,23.23
2022-12-03T09:15:42.393Z,22.17
2022-12-03T09:18:10.049Z,21.25
2022-12-03T09:20:36.565Z,21.83
2022-12-03T09:23:03.114Z,19.10
2022-12-03T09:25:29.690Z,19.00
2022-12-03T09:27:56.904Z,19.35
2022-12-03T09:30:23.609Z,18.38
2022-12-03T09:32:50.181Z,18.70
2022-12-03T09:35:17.152Z,18.52
2022-12-03T09:37:43.782Z,17.15
2022-12-03T09:40:10.928Z,17.67
2022-12-03T09:42:37.886Z,20.95
2022-12-03T09:45:10.962Z,17.65
2022-12-03T09:47:38.047Z,18.83
2022-12-03T09:50:07.223Z,19.02
2022-12-03T09:52:34.651Z,19.50
2022-12-03T09:55:04.067Z,22.77
2022-12-03T09:57:31.021Z,19.33
2022-12-03T10:00:03.235Z,17.98
2022-12-03T10:02:30.814Z,22.55
2022-12-03T10:04:58.314Z,21.30
2022-12-03T10:07:25.720Z,21.02
2022-12-03T10:09:52.970Z,25.42
2022-12-03T10:12:22.900Z,21.05
2022-12-03T10:14:49.582Z,23.25
2022-12-03T10:17:19.590Z,26.02
2022-12-03T10:19:46.228Z,25.48
2022-12-03T10:22:12.743Z,28.90
2022-12-03T10:24:39.291Z,28.08
2022-12-03T10:27:22.238Z,23.95
2022-12-03T10:29:59.121Z,25.33
2022-12-03T10:32:46.293Z,26.70
2022-12-03T10:35:15.916Z,25.88
2022-12-03T10:37:59.775Z,29.02
2022-12-03T10:40:27.951Z,27.33
2022-12-03T10:43:12.032Z,29.02
2022-12-03T10:45:38.542Z,30.90
2022-12-03T10:48:14.271Z,32.15
2022-12-03T10:50:53.128Z,32.22
2022-12-03T10:53:21.364Z,33.30
2022-12-03T10:55:48.777Z,43.22
2022-12-03T10:58:35.945Z,35.15
2022-12-03T11:01:06.118Z,33.20
2022-12-03T11:03:36.075Z,32.70
2022-12-03T11:06:05.310Z,31.85
2022-12-03T11:08:37.098Z,31.25
2022-12-03T11:11:08.257Z,35.25
2022-12-03T11:13:35.277Z,31.15
2022-12-03T11:16:03.409Z,30.95
2022-12-03T11:18:36.086Z,32.00
2022-12-03T11:21:02.718Z,36.40
2022-12-03T11:23:47.330Z,32.42
2022-12-03T11:26:28.891Z,30.88
2022-12-03T11:28:56.826Z,35.00
2022-12-03T11:31:37.024Z,32.40
2022-12-03T11:34:18.918Z,33.25
2022-12-03T11:37:11.486Z,29.52
2022-12-03T11:40:02.655Z,31.33
2022-12-03T11:42:37.187Z,32.38
2022-12-03T11:45:06.919Z,28.15
2022-12-03T11:47:39.284Z,29.85
2022-12-03T11:50:19.531Z,28.42
2022-12-03T11:52:48.968Z,32.85
2022-12-03T11:55:27.568Z,29.25
2022-12-03T11:58:10.055Z,25.73
2022-12-03T12:00:36.602Z,28.85
2022-12-03T12:03:03.436Z,29.08
2022-12-03T12:05:34.402Z,31.75
2022-12-03T12:08:01.813Z,32.72
2022-12-03T12:10:43.771Z,27.30
2022-12-03T12:13:28.816Z,23.30
2022-12-03T12:15:55.475Z,26.40
2022-12-03T12:18:40.748Z,26.98
2022-12-03T12:21:25.845Z,32.67
2022-12-03T12:23:52.333Z,32.67
2022-12-03T12:26:18.815Z,29.77
2022-12-03T12:28:45.396Z,34.95
2022-12-03T12:31:11.999Z,37.05
2022-12-03T12:33:38.745Z,39.30
2022-12-03T12:36:08.235Z,34.22
2022-12-03T12:38:34.820Z,35.97
2022-12-03T12:41:05.225Z,35.22
2022-12-03T12:43:34.074Z,38.85
2022-12-03T12:46:38.644Z,39.13
2022-12-03T12:48:57.983Z,37.00
2022-12-03T12:51:26.651Z,39.22
2022-12-03T12:53:53.976Z,42.63
2022-12-03T12:56:28.169Z,39.20
2022-12-03T12:58:57.163Z,39.75
2022-12-03T13:01:30.484Z,37.22
2022-12-03T13:04:09.181Z,36.55
2022-12-03T13:06:35.787Z,35.83
2022-12-03T13:09:02.411Z,39.70
2022-12-03T13:11:38.503Z,37.67
2022-12-03T13:14:11.306Z,38.42
2022-12-03T13:16:38.251Z,36.70
2022-12-03T13:19:15.321Z,38.85
2022-12-03T13:21:45.090Z,36.53
2022-12-03T13:24:30.253Z,33.60
2022-12-03T13:27:03.154Z,34.97
2022-12-03T13:29:29.791Z,37.85
2022-12-03T13:31:58.083Z,38.33
2022-12-03T13:34:39.070Z,36.88
2022-12-03T13:37:29.200Z,35.05
2022-12-03T13:40:14.614Z,37.67
2022-12-03T13:42:46.614Z,35.85
2022-12-03T13:47:43.778Z,36.00
2022-12-03T13:50:30.921Z,38.05
2022-12-03T13:53:03.816Z,42.28
2022-12-03T13:55:31.854Z,36.92
2022-12-03T13:57:58.514Z,38.78
2022-12-03T14:00:28.523Z,40.05
2022-12-03T14:02:55.139Z,43.47
2022-12-03T14:05:22.674Z,38.60
2022-12-03T14:07:49.469Z,41.53
2022-12-03T14:10:23.601Z,39.70
2022-12-03T14:12:50.333Z,43.83
2022-12-03T14:15:16.993Z,45.08
2022-12-03T14:17:43.599Z,42.67
2022-12-03T14:20:11.153Z,46.55
2022-12-03T14:22:38.336Z,46.65
2022-12-03T14:25:06.172Z,45.42
2022-12-03T14:27:32.879Z,47.13
2022-12-03T14:29:59.769Z,46.78
2022-12-03T14:32:32.445Z,54.50
2022-12-03T14:35:03.981Z,44.00
2022-12-03T14:37:35.243Z,47.22
2022-12-03T14:40:06.685Z,49.80
2022-12-03T14:42:33.252Z,49.78
2022-12-03T14:44:59.842Z,47.30
2022-12-03T14:47:26.425Z,55.90
2022-12-03T14:49:56.225Z,51.60
2022-12-03T14:52:25.887Z,61.60
2022-12-03T14:54:55.317Z,46.67
2022-12-03T14:57:26.902Z,60.05
2022-12-03T14:59:57.907Z,51.42
2022-12-03T15:02:24.735Z,62.50
2022-12-03T15:05:00.208Z,56.42
2022-12-03T15:07:31.227Z,57.83
2022-12-03T15:10:00.751Z,50.15
2022-12-03T15:12:30.403Z,60.13
2022-12-03T15:15:00.450Z,54.45
2022-12-03T15:17:31.669Z,55.40
2022-12-03T15:19:58.683Z,53.17
2022-12-03T15:22:25.237Z,61.70
2022-12-03T15:24:51.845Z,55.45
2022-12-03T15:27:20.979Z,55.55
2022-12-03T15:29:50.050Z,56.03
2022-12-03T15:32:19.618Z,56.95
2022-12-03T15:34:46.247Z,62.20
2022-12-03T15:37:15.531Z,60.13
2022-12-03T15:39:48.440Z,50.95
2022-12-03T15:42:22.217Z,61.90
2022-12-03T15:44:57.320Z,65.40
2022-12-03T15:47:23.894Z,55.13
2022-12-03T15:49:53.046Z,65.20
2022-12-03T15:52:20.009Z,54.75
2022-12-03T15:54:46.613Z,59.55
2022-12-03T15:57:16.200Z,54.50
2022-12-03T15:59:43.372Z,57.38
2022-12-03T16:02:10.001Z,61.75
2022-12-03T16:04:39.215Z,55.63
2022-12-03T16:07:13.448Z,63.55
2022-12-03T16:09:42.586Z,65.00
2022-12-03T16:12:09.152Z,57.67
2022-12-03T16:14:35.610Z,64.68
2022-12-03T16:17:02.341Z,64.43
2022-12-03T16:19:28.843Z,65.47
2022-12-03T16:21:58.088Z,61.35
2022-12-03T16:24:24.697Z,62.88
2022-12-03T16:26:51.268Z,69.47
2022-12-03T16:29:25.775Z,69.95
2022-12-03T16:31:52.417Z,64.13
2022-12-03T16:34:19.059Z,69.40
2022-12-03T16:36:45.953Z,67.97
2022-12-03T16:39:15.218Z,72.25
2022-12-03T16:41:41.791Z,76.90
2022-12-03T16:44:10.902Z,77.45
2022-12-03T16:46:37.758Z,74.43
2022-12-03T16:49:07.013Z,79.70
2022-12-03T16:51:38.445Z,77.43
2022-12-03T16:54:07.634Z,70.25
2022-12-03T16:56:34.196Z,74.03
2022-12-03T16:59:06.951Z,76.75
2022-12-03T17:01:45.391Z,80.43
2022-12-03T17:04:13.755Z,73.28
2022-12-03T17:06:40.395Z,75.10
2022-12-03T17:09:07.014Z,71.28
2022-12-03T17:11:36.960Z,74.43
2022-12-03T17:14:03.565Z,66.97
2022-12-03T17:16:30.213Z,69.53
2022-12-03T17:18:56.917Z,66.95
2022-12-03T17:21:23.497Z,67.97
2022-12-03T17:23:51.243Z,61.58
2022-12-03T17:26:18.598Z,57.42
2022-12-03T17:28:48.141Z,66.22
2022-12-03T17:31:14.810Z,68.95
2022-12-03T17:33:44.097Z,74.47
2022-12-03T17:36:10.998Z,65.97
2022-12-03T17:38:39.488Z,75.90
2022-12-03T17:41:07.536Z,85.00
2022-12-03T17:43:34.311Z,81.60
2022-12-03T17:46:00.944Z,72.30
2022-12-03T17:48:32.822Z,77.20
2022-12-03T17:50:59.734Z,76.47
2022-12-03T17:53:26.662Z,69.45
2022-12-03T17:55:53.289Z,75.03
2022-12-03T17:58:21.541Z,72.35
2022-12-03T18:00:48.551Z,75.50
2022-12-03T18:03:15.151Z,72.50
2022-12-03T18:05:41.860Z,67.22
2022-12-03T18:08:08.916Z,89.53
2022-12-03T18:10:35.519Z,78.95
2022-12-03T18:13:02.530Z,70.28
2022-12-03T18:15:39.839Z,64.75
2022-12-03T18:18:06.560Z,70.28
2022-12-03T18:20:33.239Z,62.45
2022-12-03T18:22:59.904Z,67.07
2022-12-03T18:25:27.206Z,63.20
2022-12-03T18:27:56.082Z,63.00
2022-12-03T18:30:23.091Z,56.53
2022-12-03T18:32:50.900Z,57.47
2022-12-03T18:35:18.204Z,57.30
2022-12-03T18:37:44.786Z,60.15
2022-12-03T18:40:17.817Z,69.03
2022-12-03T18:42:44.479Z,61.17
2022-12-03T18:45:17.301Z,61.35
2022-12-03T18:47:44.185Z,57.55
2022-12-03T18:50:11.831Z,60.05
2022-12-03T18:52:38.989Z,61.65
2022-12-03T18:55:06.282Z,59.30
2022-12-03T18:57:40.205Z,55.42
2022-12-03T19:00:13.272Z,65.40
2022-12-03T19:03:02.954Z,61.88
2022-12-03T19:05:33.992Z,57.15
2022-12-03T19:08:04.496Z,59.08
2022-12-03T19:10:31.167Z,58.35
2022-12-03T19:12:58.605Z,53.13
2022-12-03T19:15:45.196Z,55.47
2022-12-03T19:18:11.737Z,57.15
2022-12-03T19:20:40.245Z,64.70
2022-12-03T19:23:09.918Z,59.72
2022-12-03T19:25:37.819Z,70.22
2022-12-03T19:28:04.531Z,64.75
2022-12-03T19:30:33.778Z,66.45
2022-12-03T19:33:02.414Z,68.78
2022-12-03T19:35:29.052Z,62.72
2022-12-03T19:37:57.953Z,80.88
2022-12-03T19:40:26.784Z,67.40
2022-12-03T19:42:56.745Z,68.95
2022-12-03T19:45:26.000Z,70.65
2022-12-03T19:47:58.513Z,68.97
2022-12-03T19:50:25.155Z,71.53
2022-12-03T19:52:51.740Z,67.13
2022-12-03T19:55:24.615Z,53.88
2022-12-03T19:57:51.118Z,65.60
2022-12-03T20:00:17.903Z,68.57
2022-12-03T20:05:41.748Z,49.47
2022-12-03T20:08:08.469Z,62.90
2022-12-03T20:10:38.198Z,61.30
2022-12-03T20:13:05.450Z,60.10
2022-12-03T20:15:34.939Z,58.30
2022-12-03T20:18:01.437Z,62.50
2022-12-03T20:20:28.080Z,60.88
2022-12-03T20:22:54.616Z,60.90
2022-12-03T20:25:24.046Z,76.40
2022-12-03T20:27:50.623Z,59.08
2022-12-03T20:30:17.300Z,80.78
2022-12-03T20:32:45.870Z,82.03
2022-12-03T20:35:16.264Z,95.78
2022-12-03T20:37:42.752Z,89.00
2022-12-03T20:40:12.433Z,92.00
2022-12-03T20:42:38.986Z,89.97
2022-12-03T20:45:08.141Z,113.78
2022-12-03T20:47:36.966Z,95.50
2022-12-03T20:50:04.785Z,89.55
2022-12-03T20:52:31.441Z,94.00
2022-12-03T20:54:57.978Z,120.45
2022-12-03T20:57:24.544Z,90.03
2022-12-03T20:59:51.190Z,82.07
2022-12-03T21:02:23.722Z,101.97
2022-12-03T21:04:50.424Z,91.35
2022-12-03T21:07:16.993Z,83.18
2022-12-03T21:09:43.551Z,104.57
2022-12-03T21:12:10.189Z,97.95
2022-12-03T21:14:41.154Z,89.97
2022-12-03T21:17:09.350Z,96.47
2022-12-03T21:19:36.458Z,79.75
2022-12-03T21:22:03.069Z,130.43
2022-12-03T21:24:30.197Z,85.57
2022-12-03T21:26:56.828Z,89.80
2022-12-03T21:29:25.064Z,97.53
2022-12-03T21:31:54.313Z,120.93
2022-12-03T21:34:20.982Z,91.70
2022-12-03T21:36:51.744Z,120.50
2022-12-03T21:39:19.578Z,120.60
2022-12-03T21:42:19.108Z,104.03
2022-12-03T21:44:35.767Z,87.43
2022-12-03T21:47:11.156Z,86.65
2022-12-03T21:49:41.502Z,95.43
2022-12-03T21:52:12.398Z,83.22
2022-12-03T21:54:41.106Z,86.03
2022-12-03T21:57:07.728Z,80.72
2022-12-03T21:59:34.433Z,89.88
2022-12-03T22:02:01.287Z,78.53
2022-12-03T22:04:27.954Z,81.30
2022-12-03T22:06:56.259Z,86.45
2022-12-03T22:09:26.680Z,87.35
2022-12-03T22:11:55.897Z,100.18
2022-12-03T22:14:22.629Z,93.65
2022-12-03T22:16:49.267Z,78.43
2022-12-03T22:19:15.916Z,79.95
2022-12-03T22:21:42.482Z,102.28
2022-12-03T22:24:09.209Z,98.88
2022-12-03T22:26:37.756Z,92.22
2022-12-03T22:29:15.038Z,92.00
2022-12-03T22:31:41.823Z,90.68
2022-12-03T22:34:08.406Z,95.22
2022-12-03T22:36:35.063Z,102.47
2022-12-03T22:39:01.666Z,93.35
2022-12-03T22:41:30.504Z,98.90
2022-12-03T22:43:57.041Z,85.60
2022-12-03T22:46:23.765Z,81.95
2022-12-03T22:48:50.417Z,92.47
2022-12-03T22:51:21.523Z,100.10
2022-12-03T22:53:48.267Z,95.15
2022-12-03T22:56:18.107Z,90.38
2022-12-03T22:58:44.648Z,73.78
2022-12-03T23:01:22.237Z,71.38
2022-12-03T23:03:49.011Z,72.22
2022-12-03T23:06:19.701Z,97.47
2022-12-03T23:08:46.500Z,76.43
2022-12-03T23:11:16.098Z,75.68
2022-12-03T23:13:42.816Z,62.10
2022-12-03T23:16:16.889Z,65.38
2022-12-03T23:18:45.057Z,57.95
2022-12-03T23:21:16.123Z,81.35
2022-12-03T23:23:43.257Z,78.32
2022-12-03T23:26:11.363Z,77.03
2022-12-03T23:28:41.253Z,92.60
2022-12-03T23:31:19.519Z,81.25
2022-12-03T23:33:46.451Z,91.32
2022-12-03T23:36:16.217Z,92.53
2022-12-03T23:38:46.589Z,74.85
2022-12-03T23:41:15.055Z,73.53
2022-12-03T23:43:46.260Z,81.50
2022-12-03T23:46:15.010Z,75.80
2022-12-03T23:48:41.849Z,62.65
2022-12-03T23:51:20.491Z,77.05
2022-12-03T23:53:47.196Z,80.10
2022-12-03T23:56:15.486Z,66.70
2022-12-03T23:58:46.934Z,84.00
